Time;durP1;ratioP1;P1;durP2;ratioP2;P2;SDS_P1;SDS_P2;PMS_P1;PMS_P2;Temp;Humidity;BMP_temperature;BMP_pressure;BME280_temperature;BME280_humidity;BME280_pressure;Samples;Min_cycle;Max_cycle;Signal;HPM_P1;HPM_P2
2022/01/24 00:02:25;;;;;;;;;;;;;;;-4.15;74.50;100113.19;106252;1277;124535;-81
2022/01/24 00:04:51;;;;;;;;;;;;;;;-4.24;74.30;100115.25;106424;1277;24325;-82
2022/01/24 00:07:21;;;;;;;;;;;;;;;-4.32;74.42;100126.61;106464;1278;124297;-82
2022/01/24 00:09:53;;;;;;;;;;;;;;;-4.43;73.93;100123.25;106649;1278;24470;-81
2022/01/24 00:12:53;;;;;;;;;;;;;;;-4.53;74.02;100125.40;106181;1278;124820;-83
2022/01/24 00:18:03;;;;;;;;;;;;;;;-4.72;74.48;100134.89;106306;1277;27794;-82
2022/01/24 00:28:26;;;;;;;;;;;;;;;-5.16;74.85;100125.30;106308;1278;29602;-81
2022/01/24 00:30:55;;;;;;;;;;;;;;;-5.25;75.08;100133.30;106094;1280;124963;-81
2022/01/24 00:33:23;;;;;;;;;;;;;;;-5.34;75.12;100135.69;106354;1278;22545;-80
2022/01/24 00:35:50;;;;;;;;;;;;;;;-5.45;75.15;100136.55;106331;1278;25324;-81
2022/01/24 00:38:17;;;;;;;;;;;;;;;-5.54;75.59;100132.71;106374;1278;125292;-81
2022/01/24 00:40:58;;;;;;;;;;;;;;;-5.62;75.59;100131.36;106174;1277;24256;-81
2022/01/24 00:45:59;;;;;;;;;;;;;;;-5.78;75.79;100126.52;106036;1277;23978;-81
2022/01/24 00:54:42;;;;;;;;;;;;;;;-5.91;76.00;100123.47;106156;1281;22556;-81
2022/01/24 00:56:46;;;;;;;;;;;;;;;-5.96;76.04;100123.27;105977;1277;124091;-81
2022/01/24 00:59:12;;;;;;;;;;;;;;;-6.01;75.93;100118.15;106135;1277;22559;-81
2022/01/24 01:01:39;;;;;;;;;;;;;;;-6.06;75.94;100121.63;105928;1281;124821;-80
2022/01/24 01:04:05;;;;;;;;;;;;;;;-6.11;76.55;100131.30;106188;1278;25244;-80
2022/01/24 01:06:31;;;;;;;;;;;;;;;-6.16;76.21;100129.69;106290;1277;124592;-79
2022/01/24 01:19:58;;;;;;;;;;;;;;;-6.53;77.02;100128.45;106031;1281;124917;-81
2022/01/24 01:22:24;;;;;;;;;;;;;;;-6.60;76.71;100132.39;106123;1277;25362;-81
2022/01/24 01:24:53;;;;;;;;;;;;;;;-6.67;76.74;100133.73;106061;1278;124766;-80
2022/01/24 01:27:40;;;;;;;;;;;;;;;-6.74;77.18;100136.25;106268;1277;24384;-81
2022/01/24 01:30:17;;;;;;;;;;;;;;;-6.79;77.28;100132.48;106242;1277;22551;-81
2022/01/24 01:35:35;;;;;;;;;;;;;;;-6.78;77.94;100128.20;106241;1277;22687;-81
2022/01/24 01:54:23;;;;;;;;;;;;;;;-6.64;76.97;100126.82;106438;1277;24231;-82
2022/01/24 01:56:52;;;;;;;;;;;;;;;-6.61;76.75;100134.22;106462;1277;124095;-81
2022/01/24 01:59:18;;;;;;;;;;;;;;;-6.64;76.72;100134.26;106151;1277;22596;-82
2022/01/24 02:01:59;;;;;;;;;;;;;;;-6.72;76.64;100129.73;106146;1277;124412;-81
2022/01/24 02:04:26;;;;;;;;;;;;;;;-6.76;76.89;100134.27;106363;1277;22548;-82
2022/01/24 02:06:51;;;;;;;;;;;;;;;-6.85;76.67;100133.19;106014;1280;124675;-81
2022/01/24 02:09:18;;;;;;;;;;;;;;;-6.92;76.83;100134.66;106317;1277;24246;-81
2022/01/24 02:11:44;;;;;;;;;;;;;;;-6.97;76.63;100138.54;106256;1277;22577;-82
2022/01/24 02:14:15;;;;;;;;;;;;;;;-7.02;77.12;100140.45;106088;1280;124594;-81
2022/01/24 02:24:42;;;;;;;;;;;;;;;-7.21;77.36;100144.19;105714;1277;125641;-83
2022/01/24 02:27:09;;;;;;;;;;;;;;;-7.23;77.33;100143.58;105936;1277;22557;-80
2022/01/24 02:32:20;;;;;;;;;;;;;;;-7.20;77.47;100153.85;106067;1277;124892;-83
2022/01/24 02:34:49;;;;;;;;;;;;;;;-7.18;77.38;100153.36;106302;1277;22688;-82
2022/01/24 02:37:18;;;;;;;;;;;;;;;-7.13;77.33;100151.10;105954;1277;124881;-82
2022/01/24 02:53:15;;;;;;;;;;;;;;;-7.10;76.72;100147.21;106263;1277;22563;-82
2022/01/24 02:55:42;;;;;;;;;;;;;;;-7.15;77.12;100152.09;106186;1277;124602;-82
2022/01/24 02:58:09;;;;;;;;;;;;;;;-7.20;77.12;100149.98;106442;1277;22541;-82
2022/01/24 03:00:36;;;;;;;;;;;;;;;-7.27;76.65;100157.38;106469;1277;22564;-82
2022/01/24 03:03:03;;;;;;;;;;;;;;;-7.32;77.11;100161.22;106381;1278;124417;-82
2022/01/24 03:05:30;;;;;;;;;;;;;;;-7.39;76.98;100160.91;106303;1277;23249;-81
2022/01/24 03:07:56;;;;;;;;;;;;;;;-7.47;77.33;100154.67;106373;1277;124453;-81
2022/01/24 03:10:34;;;;;;;;;;;;;;;-7.55;77.32;100153.41;106270;1277;25388;-81
2022/01/24 03:15:50;;;;;;;;;;;;;;;-7.65;77.08;100155.34;106565;1277;24322;-82
2022/01/24 03:18:17;;;;;;;;;;;;;;;-7.67;77.36;100152.77;106470;1277;24260;-82
2022/01/24 03:20:44;;;;;;;;;;;;;;;-7.66;77.96;100155.41;106041;1281;125243;-81
2022/01/24 03:23:11;;;;;;;;;;;;;;;-7.61;77.67;100163.60;106032;1280;24283;-81
2022/01/24 03:25:37;;;;;;;;;;;;;;;-7.57;77.90;100160.90;106104;1279;124864;-81
2022/01/24 03:28:04;;;;;;;;;;;;;;;-7.52;78.12;100157.43;106214;1279;25330;-81
2022/01/24 03:30:32;;;;;;;;;;;;;;;-7.46;78.49;100163.08;106245;1279;23388;-81
2022/01/24 03:32:58;;;;;;;;;;;;;;;-7.41;78.04;100165.27;105978;1281;124113;-81
2022/01/24 03:35:24;;;;;;;;;;;;;;;-7.36;78.10;100166.59;105849;1280;22553;-81
2022/01/24 03:37:50;;;;;;;;;;;;;;;-7.34;78.12;100165.23;105947;1280;124373;-81
2022/01/24 03:40:16;;;;;;;;;;;;;;;-7.35;77.80;100163.90;106055;1281;22549;-81
2022/01/24 03:42:42;;;;;;;;;;;;;;;-7.39;77.68;100166.20;106090;1280;124557;-81
2022/01/24 03:45:10;;;;;;;;;;;;;;;-7.43;77.84;100171.56;106370;1277;24533;-81
2022/01/24 03:50:03;;;;;;;;;;;;;;;-7.54;77.55;100182.74;106165;1277;124380;-81
2022/01/24 03:52:30;;;;;;;;;;;;;;;-7.59;77.35;100184.11;106197;1277;22552;-81
2022/01/24 03:54:57;;;;;;;;;;;;;;;-7.66;77.63;100188.34;106116;1277;124772;-81
2022/01/24 03:57:24;;;;;;;;;;;;;;;-7.73;77.61;100191.74;106530;1277;22585;-81
2022/01/24 03:59:50;;;;;;;;;;;;;;;-7.80;77.92;100193.55;106210;1280;22696;-81
2022/01/24 04:02:17;;;;;;;;;;;;;;;-7.87;78.10;100193.60;106177;1277;125231;-81
2022/01/24 04:04:44;;;;;;;;;;;;;;;-7.92;78.04;100196.17;106195;1277;22568;-81
2022/01/24 04:07:12;;;;;;;;;;;;;;;-7.95;78.15;100197.92;106218;1277;125950;-81
2022/01/24 04:09:40;;;;;;;;;;;;;;;-7.96;78.05;100195.67;106124;1280;23302;-82
2022/01/24 04:12:08;;;;;;;;;;;;;;;-7.95;78.37;100195.98;106042;1278;24239;-81
2022/01/24 04:14:54;;;;;;;;;;;;;;;-7.91;78.32;100197.34;105975;1279;124902;-81
2022/01/24 04:17:23;;;;;;;;;;;;;;;-7.86;78.17;100200.40;106329;1279;24223;-81
2022/01/24 04:22:25;;;;;;;;;;;;;;;-7.89;78.15;100205.48;106142;1280;22574;-81
2022/01/24 04:24:58;;;;;;;;;;;;;;;-7.90;78.43;100207.33;106093;1279;124473;-81
2022/01/24 04:27:25;;;;;;;;;;;;;;;-7.94;77.32;100205.23;106126;1277;22544;-81
2022/01/24 04:29:51;;;;;;;;;;;;;;;-8.05;77.31;100204.79;106130;1277;22541;-81
2022/01/24 04:32:18;;;;;;;;;;;;;;;-8.13;77.42;100203.09;106166;1277;124422;-81
2022/01/24 04:34:44;;;;;;;;;;;;;;;-8.17;77.47;100201.04;106327;1277;23951;-81
2022/01/24 04:37:10;;;;;;;;;;;;;;;-8.26;77.81;100200.96;106028;1277;124937;-81
2022/01/24 04:39:36;;;;;;;;;;;;;;;-8.31;78.12;100205.30;105951;1277;22552;-80
2022/01/24 04:42:09;;;;;;;;;;;;;;;-8.34;77.90;100209.52;105951;1277;22623;-79
2022/01/24 04:44:47;;;;;;;;;;;;;;;-8.38;77.70;100211.86;106010;1277;124291;-80
2022/01/24 04:47:21;;;;;;;;;;;;;;;-8.49;77.98;100218.08;105829;1277;23200;-80
2022/01/24 04:55:00;;;;;;;;;;;;;;;-8.67;78.16;100216.40;105743;1277;124964;-80
2022/01/24 04:57:28;;;;;;;;;;;;;;;-8.66;78.36;100221.95;106064;1277;22531;-80
2022/01/24 04:59:55;;;;;;;;;;;;;;;-8.63;78.48;100221.83;106075;1277;24286;-80
2022/01/24 05:02:23;;;;;;;;;;;;;;;-8.59;78.52;100214.40;105977;1277;125287;-80
2022/01/24 05:04:49;;;;;;;;;;;;;;;-8.53;78.81;100213.94;105925;1277;23916;-82
2022/01/24 05:07:15;;;;;;;;;;;;;;;-8.47;78.74;100214.45;105521;1277;125719;-81
2022/01/24 05:09:47;;;;;;;;;;;;;;;-8.38;79.22;100215.19;106065;1277;22519;-81
2022/01/24 05:12:27;;;;;;;;;;;;;;;-8.30;79.42;100215.98;106183;1277;24338;-80
2022/01/24 05:25:54;;;;;;;;;;;;;;;-8.31;78.05;100232.77;106011;1277;124392;-79
2022/01/24 05:28:20;;;;;;;;;;;;;;;-8.36;78.20;100227.08;106281;1277;22563;-79
2022/01/24 05:30:47;;;;;;;;;;;;;;;-8.41;77.99;100234.06;105970;1277;124368;-81
2022/01/24 05:33:13;;;;;;;;;;;;;;;-8.55;77.37;100238.30;106144;1277;22596;-79
2022/01/24 05:35:39;;;;;;;;;;;;;;;-8.73;77.28;100234.64;106146;1277;24046;-79
2022/01/24 05:38:06;;;;;;;;;;;;;;;-8.86;77.51;100232.48;106117;1277;125018;-79
2022/01/24 05:40:32;;;;;;;;;;;;;;;-8.90;78.27;100234.97;105761;1277;22590;-80
2022/01/24 05:42:58;;;;;;;;;;;;;;;-8.93;78.46;100236.55;105980;1277;125613;-80
2022/01/24 05:45:24;;;;;;;;;;;;;;;-8.96;78.49;100231.20;106259;1277;22670;-81
2022/01/24 05:47:51;;;;;;;;;;;;;;;-8.95;78.89;100234.86;106245;1277;25232;-79
2022/01/24 05:50:17;;;;;;;;;;;;;;;-8.94;78.72;100240.98;106208;1277;125445;-80
2022/01/24 05:52:43;;;;;;;;;;;;;;;-9.05;77.30;100244.85;106198;1278;22555;-80
2022/01/24 05:55:09;;;;;;;;;;;;;;;-9.19;77.25;100244.30;106114;1277;125043;-80
2022/01/24 05:57:36;;;;;;;;;;;;;;;-9.19;78.40;100247.83;106310;1277;24438;-81
2022/01/24 06:00:07;;;;;;;;;;;;;;;-9.11;79.21;100252.54;106092;1277;22550;-81
2022/01/24 06:02:38;;;;;;;;;;;;;;;-8.99;79.54;100256.89;106370;1277;124923;-81
2022/01/24 06:05:05;;;;;;;;;;;;;;;-8.90;78.77;100256.65;106243;1277;25546;-81
2022/01/24 06:07:31;;;;;;;;;;;;;;;-8.83;79.40;100264.52;106053;1277;125147;-80
2022/01/24 06:10:12;;;;;;;;;;;;;;;-8.73;79.01;100263.17;106106;1277;25459;-80
2022/01/24 06:12:38;;;;;;;;;;;;;;;-8.71;78.57;100263.93;106048;1280;24288;-82
2022/01/24 06:15:04;;;;;;;;;;;;;;;-8.69;78.31;100261.20;106146;1277;124822;-80
2022/01/24 06:17:30;;;;;;;;;;;;;;;-8.70;77.75;100266.19;106101;1278;22570;-80
2022/01/24 06:19:56;;;;;;;;;;;;;;;-8.70;78.03;100267.41;106177;1277;125620;-81
2022/01/24 06:22:22;;;;;;;;;;;;;;;-8.66;78.13;100269.32;106220;1279;23622;-81
2022/01/24 06:24:48;;;;;;;;;;;;;;;-8.63;78.25;100270.90;105974;1279;124691;-82
2022/01/24 06:27:15;;;;;;;;;;;;;;;-8.68;77.81;100273.64;106172;1279;24235;-81
2022/01/24 06:29:41;;;;;;;;;;;;;;;-8.72;78.32;100274.53;106208;1279;22837;-81
2022/01/24 06:32:07;;;;;;;;;;;;;;;-8.70;78.84;100277.11;106003;1279;124386;-82
2022/01/24 06:34:33;;;;;;;;;;;;;;;-8.70;78.58;100270.75;106143;1279;26607;-82
2022/01/24 06:36:59;;;;;;;;;;;;;;;-8.70;78.88;100269.68;106051;1279;124685;-81
2022/01/24 06:39:25;;;;;;;;;;;;;;;-8.70;78.94;100271.96;106247;1279;22552;-83
2022/01/24 06:42:22;;;;;;;;;;;;;;;-8.70;78.67;100270.95;106043;1277;24265;-81
2022/01/24 06:44:42;;;;;;;;;;;;;;;-8.74;78.44;100275.01;106310;1277;124566;-83
2022/01/24 06:47:16;;;;;;;;;;;;;;;-8.77;78.67;100278.14;106473;1277;30178;-80
2022/01/24 06:49:43;;;;;;;;;;;;;;;-8.80;78.51;100280.59;106242;1277;124906;-80
2022/01/24 06:52:09;;;;;;;;;;;;;;;-8.87;78.33;100282.85;106162;1277;22575;-81
2022/01/24 06:54:37;;;;;;;;;;;;;;;-8.90;78.11;100285.64;106481;1277;22554;-81
2022/01/24 06:57:04;;;;;;;;;;;;;;;-8.90;78.37;100286.03;106676;1277;124713;-81
2022/01/24 06:59:30;;;;;;;;;;;;;;;-8.87;78.56;100284.59;106209;1277;22553;-80
2022/01/24 07:01:56;;;;;;;;;;;;;;;-8.79;79.11;100289.48;106570;1277;125018;-80
2022/01/24 07:04:22;;;;;;;;;;;;;;;-8.69;78.95;100286.73;106383;1277;22584;-80
2022/01/24 07:06:49;;;;;;;;;;;;;;;-8.57;79.05;100285.04;106826;1277;125314;-81
2022/01/24 07:09:15;;;;;;;;;;;;;;;-8.43;78.90;100279.24;106553;1277;22547;-81
2022/01/24 07:11:46;;;;;;;;;;;;;;;-8.29;78.58;100279.36;106444;1277;23441;-81
2022/01/24 07:14:36;;;;;;;;;;;;;;;-8.15;78.50;100279.19;106757;1277;124531;-81
2022/01/24 07:19:48;;;;;;;;;;;;;;;-8.23;75.36;100283.98;106166;1277;124257;-81
2022/01/24 07:22:14;;;;;;;;;;;;;;;-8.39;74.82;100286.56;106293;1277;22551;-81
2022/01/24 07:24:42;;;;;;;;;;;;;;;-8.41;75.70;100287.56;106365;1277;124479;-82
2022/01/24 07:27:08;;;;;;;;;;;;;;;-8.42;75.88;100295.58;106429;1277;26495;-81
2022/01/24 07:29:34;;;;;;;;;;;;;;;-8.43;76.07;100298.96;106295;1280;24276;-81
2022/01/24 07:32:02;;;;;;;;;;;;;;;-8.40;76.40;100299.13;106185;1277;124399;-81
2022/01/24 07:34:28;;;;;;;;;;;;;;;-8.40;76.73;100299.48;106413;1277;22567;-81
2022/01/24 07:36:55;;;;;;;;;;;;;;;-8.40;76.73;100303.36;106108;1277;124632;-80
2022/01/24 07:39:22;;;;;;;;;;;;;;;-8.42;77.05;100302.79;106462;1277;25248;-81
2022/01/24 07:41:50;;;;;;;;;;;;;;;-8.47;76.89;100313.27;106215;1277;22536;-80
2022/01/24 07:44:20;;;;;;;;;;;;;;;-8.57;76.12;100315.50;106282;1277;125471;-80
2022/01/24 07:46:46;;;;;;;;;;;;;;;-8.67;75.74;100313.73;106064;1279;22851;-80
2022/01/24 07:49:12;;;;;;;;;;;;;;;-8.59;77.13;100311.04;106399;1277;125124;-80
2022/01/24 07:51:39;;;;;;;;;;;;;;;-8.44;77.54;100309.55;106438;1277;22539;-80
2022/01/24 07:54:06;;;;;;;;;;;;;;;-8.28;77.42;100305.23;106289;1277;25232;-81
2022/01/24 07:56:32;;;;;;;;;;;;;;;-8.12;77.75;100304.20;106374;1277;125886;-81
2022/01/24 07:58:59;;;;;;;;;;;;;;;-7.95;77.37;100299.39;106572;1277;22551;-80
2022/01/24 08:01:27;;;;;;;;;;;;;;;-7.80;77.37;100294.38;106254;1277;125934;-80
2022/01/24 08:04:04;;;;;;;;;;;;;;;-7.61;77.35;100291.98;106302;1277;25311;-80
2022/01/24 08:06:32;;;;;;;;;;;;;;;-7.45;77.33;100288.40;106348;1277;22550;-83
2022/01/24 08:09:00;;;;;;;;;;;;;;;-7.28;77.63;100292.10;106272;1277;124011;-80
2022/01/24 08:11:27;;;;;;;;;;;;;;;-7.14;77.30;100294.13;106213;1277;23906;-81
2022/01/24 08:13:54;;;;;;;;;;;;;;;-7.16;75.17;100295.98;106195;1279;125007;-79
2022/01/24 08:16:22;;;;;;;;;;;;;;;-7.30;73.60;100296.96;106211;1279;22562;-78
2022/01/24 08:18:52;;;;;;;;;;;;;;;-7.46;73.47;100296.45;106019;1279;124710;-83
2022/01/24 08:21:21;;;;;;;;;;;;;;;-7.57;73.41;100289.67;106255;1279;24269;-82
2022/01/24 08:23:48;;;;;;;;;;;;;;;-7.62;73.81;100295.93;106272;1280;22528;-80
2022/01/24 08:26:15;;;;;;;;;;;;;;;-7.74;73.33;100296.22;106172;1280;124491;-79
2022/01/24 08:28:41;;;;;;;;;;;;;;;-7.89;73.55;100294.53;106150;1277;22792;-83
2022/01/24 08:31:07;;;;;;;;;;;;;;;-7.93;74.33;100296.69;106489;1277;124838;-82
2022/01/24 08:33:34;;;;;;;;;;;;;;;-7.92;74.52;100296.48;106364;1277;24214;-80
2022/01/24 08:36:00;;;;;;;;;;;;;;;-7.92;74.58;100299.26;106038;1277;22633;-81
2022/01/24 08:38:29;;;;;;;;;;;;;;;-7.83;75.14;100303.73;106209;1278;124782;-83
2022/01/24 08:41:02;;;;;;;;;;;;;;;-7.68;75.22;100307.48;106402;1277;25369;-82
2022/01/24 08:46:14;;;;;;;;;;;;;;;-7.21;75.96;100312.19;106776;1277;22560;-78
2022/01/24 08:48:42;;;;;;;;;;;;;;;-7.01;75.92;100308.75;108883;1278;22503;-82
2022/01/24 08:51:09;;;;;;;;;;;;;;;-6.80;75.65;100304.36;107014;1277;124063;-79
2022/01/24 08:53:35;;;;;;;;;;;;;;;-6.60;75.78;100306.90;105894;1277;24421;-82
2022/01/24 08:56:04;;;;;;;;;;;;;;;-6.40;75.35;100310.35;106009;1277;124292;-83
2022/01/24 08:58:31;;;;;;;;;;;;;;;-6.23;75.20;100306.67;106026;1277;26855;-83
2022/01/24 09:00:57;;;;;;;;;;;;;;;-6.09;74.91;100306.77;105898;1277;125124;-82
2022/01/24 09:03:25;;;;;;;;;;;;;;;-5.99;74.50;100312.67;106135;1277;25233;-82
2022/01/24 09:05:53;;;;;;;;;;;;;;;-5.87;74.63;100314.05;106085;1277;25302;-82
2022/01/24 09:08:22;;;;;;;;;;;;;;;-5.76;74.34;100312.33;105914;1277;124614;-82
2022/01/24 09:10:50;;;;;;;;;;;;;;;-5.69;74.21;100308.86;107185;1277;22547;-82
2022/01/24 09:13:18;;;;;;;;;;;;;;;-5.61;74.07;100304.44;106329;1277;124922;-83
2022/01/24 09:15:45;;;;;;;;;;;;;;;-5.49;74.28;100309.73;106521;1277;22556;-83
2022/01/24 09:18:11;;;;;;;;;;;;;;;-5.37;73.81;100316.73;106582;1277;22570;-83
2022/01/24 09:20:40;;;;;;;;;;;;;;;-5.28;73.58;100312.70;106719;1278;124796;-83
2022/01/24 09:23:07;;;;;;;;;;;;;;;-5.20;73.18;100311.65;105991;1277;22700;-83
2022/01/24 09:25:34;;;;;;;;;;;;;;;-5.13;72.90;100304.95;106187;1277;124366;-85
2022/01/24 09:28:01;;;;;;;;;;;;;;;-5.06;72.86;100305.06;105872;1277;27020;-85
2022/01/24 09:30:38;;;;;;;;;;;;;;;-4.99;72.49;100307.08;106165;1277;24304;-85
2022/01/24 09:33:06;;;;;;;;;;;;;;;-4.90;72.55;100305.83;106228;1277;124265;-85
2022/01/24 09:35:33;;;;;;;;;;;;;;;-4.79;72.70;100307.17;106320;1277;22680;-84
2022/01/24 09:37:59;;;;;;;;;;;;;;;-4.66;72.57;100312.40;106081;1277;124408;-83
2022/01/24 09:40:26;;;;;;;;;;;;;;;-4.56;72.02;100312.80;106435;1277;22542;-82
2022/01/24 09:42:53;;;;;;;;;;;;;;;-4.29;73.97;100305.65;105854;1277;124557;-83
2022/01/24 09:45:19;;;;;;;;;;;;;;;-4.05;72.54;100307.21;106421;1277;22728;-83
2022/01/24 09:47:46;;;;;;;;;;;;;;;-3.93;71.61;100303.91;105847;1277;215817;-83
2022/01/24 09:50:15;;;;;;;;;;;;;;;-3.86;70.54;100296.69;106073;1277;124741;-83
2022/01/24 09:52:46;;;;;;;;;;;;;;;-3.79;70.43;100296.71;106113;1280;24450;-83
2022/01/24 09:55:15;;;;;;;;;;;;;;;-3.73;70.17;100295.92;106380;1277;124441;-83
2022/01/24 09:57:42;;;;;;;;;;;;;;;-3.66;69.60;100294.58;106176;1277;23464;-81
2022/01/24 10:00:11;;;;;;;;;;;;;;;-3.55;70.45;100281.17;106096;1277;24295;-82
2022/01/24 10:02:38;;;;;;;;;;;;;;;-3.40;69.31;100277.12;107254;1277;125802;-78
2022/01/24 10:05:16;;;;;;;;;;;;;;;-3.34;69.37;100277.02;106729;1277;22571;-80
2022/01/24 10:07:49;;;;;;;;;;;;;;;-3.22;69.32;100270.50;106695;1277;124383;-82
2022/01/24 10:10:27;;;;;;;;;;;;;;;-3.05;69.18;100265.34;106762;1277;24374;-80
2022/01/24 10:18:08;;;;;;;;;;;;;;;-2.68;68.40;100256.14;106896;1277;22549;-81
2022/01/24 10:20:39;;;;;;;;;;;;;;;-2.55;68.74;100258.95;106227;1277;124403;-81
2022/01/24 10:23:24;;;;;;;;;;;;;;;-2.40;68.57;100259.73;106542;1277;24213;-81
2022/01/24 10:25:54;;;;;;;;;;;;;;;-2.23;68.74;100257.58;106082;1277;124873;-80
2022/01/24 10:28:39;;;;;;;;;;;;;;;-2.08;68.28;100257.80;106197;1277;22548;-81
2022/01/24 10:31:07;;;;;;;;;;;;;;;-1.93;67.56;100261.45;106260;1277;124467;-87
2022/01/24 10:33:53;;;;;;;;;;;;;;;-1.83;67.07;100260.16;106012;1277;22538;-87
2022/01/24 10:36:32;;;;;;;;;;;;;;;-1.77;66.75;100258.81;105977;1277;24537;-85
2022/01/24 10:39:20;;;;;;;;;;;;;;;-1.72;66.84;100253.04;106219;1278;124902;-92
2022/01/24 10:42:21;;;;;;;;;;;;;;;-1.59;66.79;100254.48;106351;1277;23367;-86
2022/01/24 10:44:50;;;;;;;;;;;;;;;-1.44;66.44;100253.15;105995;1280;124564;-86
2022/01/24 10:47:27;;;;;;;;;;;;;;;-1.31;65.93;100250.33;106299;1277;24369;-86
2022/01/24 10:49:55;;;;;;;;;;;;;;;-1.23;65.58;100242.87;106121;1280;124456;-86
2022/01/24 10:52:26;;;;;;;;;;;;;;;-1.10;65.44;100240.09;106194;1280;26134;-86
2022/01/24 10:55:09;;;;;;;;;;;;;;;-0.99;64.66;100235.20;105936;1277;124489;-89
2022/01/24 10:57:36;;;;;;;;;;;;;;;-0.88;64.52;100232.78;105899;1277;25517;-85
2022/01/24 11:00:05;;;;;;;;;;;;;;;-0.84;64.15;100228.81;106178;1277;24360;-86
2022/01/24 11:02:35;;;;;;;;;;;;;;;-0.77;64.25;100226.14;106381;1280;125208;-86
2022/01/24 11:05:21;;;;;;;;;;;;;;;-0.68;64.23;100223.91;106159;1280;25307;-86
2022/01/24 11:07:48;;;;;;;;;;;;;;;-0.60;64.06;100221.11;106844;1277;124184;-86
2022/01/24 11:10:15;;;;;;;;;;;;;;;-0.55;63.38;100215.88;106380;1277;24330;-86
2022/01/24 11:12:42;;;;;;;;;;;;;;;-0.49;63.24;100211.27;106657;1277;23426;-87
2022/01/24 11:15:10;;;;;;;;;;;;;;;-0.42;62.90;100206.36;106242;1277;124248;-85
2022/01/24 11:17:37;;;;;;;;;;;;;;;-0.36;62.50;100200.41;106262;1277;25261;-86
2022/01/24 11:20:05;;;;;;;;;;;;;;;-0.36;62.39;100195.68;106187;1277;124170;-86
2022/01/24 11:22:35;;;;;;;;;;;;;;;-0.35;61.91;100193.28;106072;1277;23752;-86
2022/01/24 11:25:06;;;;;;;;;;;;;;;-0.32;61.96;100189.52;105802;1277;124396;-88
2022/01/24 11:27:39;;;;;;;;;;;;;;;-0.31;61.79;100186.92;106067;1277;22615;-88
2022/01/24 11:30:17;;;;;;;;;;;;;;;-0.26;61.61;100189.13;106021;1277;25473;-86
2022/01/24 11:32:48;;;;;;;;;;;;;;;-0.22;62.02;100186.98;106053;1277;124323;-88
2022/01/24 11:35:35;;;;;;;;;;;;;;;-0.12;61.12;100183.11;105875;1277;22689;-87
2022/01/24 11:38:03;;;;;;;;;;;;;;;-0.03;60.76;100176.63;105890;1277;124374;-87
2022/01/24 11:40:48;;;;;;;;;;;;;;;0.04;60.25;100182.67;106096;1277;22673;-86
2022/01/24 11:43:46;;;;;;;;;;;;;;;0.11;60.45;100184.14;106058;1277;124224;-87
2022/01/24 11:46:35;;;;;;;;;;;;;;;0.21;60.17;100187.25;106172;1277;23221;-87
2022/01/24 11:49:06;;;;;;;;;;;;;;;0.32;60.06;100185.20;106126;1277;124109;-87
2022/01/24 11:51:34;;;;;;;;;;;;;;;0.41;59.54;100179.53;106189;1277;22636;-87
2022/01/24 11:54:02;;;;;;;;;;;;;;;0.43;59.11;100169.52;106155;1277;23091;-87
2022/01/24 11:56:31;;;;;;;;;;;;;;;0.43;58.46;100173.66;106358;1277;124417;-87
2022/01/24 11:59:16;;;;;;;;;;;;;;;0.43;58.65;100173.86;106280;1277;22553;-87
2022/01/24 12:02:06;;;;;;;;;;;;;;;0.47;58.26;100166.84;106216;1277;124222;-87
2022/01/24 12:04:52;;;;;;;;;;;;;;;0.51;58.29;100172.90;105992;1277;29262;-88
2022/01/24 12:07:25;;;;;;;;;;;;;;;0.57;58.24;100167.55;105735;1280;124242;-88
2022/01/24 12:09:53;;;;;;;;;;;;;;;0.57;58.13;100163.83;105973;1280;25402;-88
2022/01/24 12:12:39;;;;;;;;;;;;;;;0.58;58.21;100164.48;105945;1280;24264;-90
2022/01/24 12:15:07;;;;;;;;;;;;;;;0.58;58.61;100161.57;105879;1280;123917;-90
2022/01/24 12:17:52;;;;;;;;;;;;;;;0.61;58.08;100161.02;105929;1280;23190;-90
2022/01/24 12:20:31;;;;;;;;;;;;;;;0.64;58.25;100158.89;106228;1279;124207;-90
2022/01/24 12:22:59;;;;;;;;;;;;;;;0.70;58.18;100154.27;106013;1279;24226;-88
2022/01/24 12:25:44;;;;;;;;;;;;;;;0.79;57.85;100164.20;105977;1279;124446;-90
2022/01/24 12:28:18;;;;;;;;;;;;;;;0.83;57.87;100164.73;106014;1279;24438;-90
2022/01/24 12:30:59;;;;;;;;;;;;;;;0.85;57.45;100166.65;105528;1280;124262;-88
2022/01/24 12:33:39;;;;;;;;;;;;;;;0.84;57.06;100165.35;105786;1281;23232;-90
2022/01/24 12:36:11;;;;;;;;;;;;;;;0.83;57.24;100165.56;105952;1279;25468;-88
2022/01/24 12:38:41;;;;;;;;;;;;;;;0.82;56.47;100166.45;105768;1277;124235;-87
2022/01/24 12:41:14;;;;;;;;;;;;;;;0.78;56.39;100171.73;106109;1277;23691;-90
2022/01/24 12:46:27;;;;;;;;;;;;;;;0.69;56.26;100178.14;106014;1277;22719;-87
2022/01/24 12:48:56;;;;;;;;;;;;;;;0.64;56.37;100176.78;106722;1280;124462;-87
2022/01/24 12:51:23;;;;;;;;;;;;;;;0.62;56.53;100176.78;106619;1277;22649;-87
2022/01/24 12:53:50;;;;;;;;;;;;;;;0.62;57.17;100179.31;106576;1277;24290;-87
2022/01/24 12:56:18;;;;;;;;;;;;;;;0.61;57.54;100175.27;106100;1277;124063;-86
2022/01/24 12:58:48;;;;;;;;;;;;;;;0.70;57.54;100169.25;106123;1277;24292;-87
2022/01/24 13:01:33;;;;;;;;;;;;;;;0.85;57.34;100168.60;106030;1277;124995;-87
2022/01/24 13:04:10;;;;;;;;;;;;;;;1.01;57.38;100166.83;105985;1276;23653;-87
2022/01/24 13:06:38;;;;;;;;;;;;;;;1.17;57.42;100165.55;105749;1280;24302;-86
2022/01/24 13:09:13;;;;;;;;;;;;;;;1.32;56.82;100164.70;105744;1277;123951;-86
2022/01/24 13:11:47;;;;;;;;;;;;;;;1.41;56.46;100162.77;105994;1277;22574;-86
2022/01/24 13:14:20;;;;;;;;;;;;;;;1.47;55.96;100160.01;105974;1277;124624;-86
2022/01/24 13:22:30;;;;;;;;;;;;;;;1.48;55.08;100160.65;106008;1277;24423;-86
2022/01/24 13:25:05;;;;;;;;;;;;;;;1.55;55.20;100158.77;105982;1278;124415;-86
2022/01/24 13:27:35;;;;;;;;;;;;;;;1.58;54.59;100149.92;106020;1277;24295;-86
2022/01/24 13:30:06;;;;;;;;;;;;;;;1.56;54.37;100144.50;105991;1277;23200;-86
2022/01/24 13:32:51;;;;;;;;;;;;;;;1.56;54.57;100136.98;106159;1277;124277;-86
2022/01/24 13:35:21;;;;;;;;;;;;;;;1.62;54.50;100138.73;105738;1277;22550;-86
2022/01/24 13:37:47;;;;;;;;;;;;;;;1.60;54.22;100139.15;105604;1277;123989;-86
2022/01/24 13:40:14;;;;;;;;;;;;;;;1.61;54.02;100138.68;105658;1277;23241;-86
2022/01/24 13:42:41;;;;;;;;;;;;;;;1.63;54.02;100135.27;105986;1280;22556;-86
2022/01/24 13:45:07;;;;;;;;;;;;;;;1.63;53.83;100129.05;105907;1277;123841;-86
2022/01/24 13:47:34;;;;;;;;;;;;;;;1.58;53.65;100126.63;106162;1277;25323;-87
2022/01/24 13:50:02;;;;;;;;;;;;;;;1.48;53.48;100119.48;105574;1277;124030;-87
2022/01/24 13:52:29;;;;;;;;;;;;;;;1.39;53.58;100120.35;105818;1280;22550;-85
2022/01/24 13:55:12;;;;;;;;;;;;;;;1.33;53.96;100121.10;105971;1277;124678;-85
2022/01/24 13:57:46;;;;;;;;;;;;;;;1.31;54.30;100122.65;106055;1277;25359;-86
2022/01/24 14:00:15;;;;;;;;;;;;;;;1.34;54.59;100123.35;106083;1277;23462;-85
2022/01/24 14:02:46;;;;;;;;;;;;;;;1.31;54.40;100122.48;106463;1277;124185;-85
2022/01/24 14:05:13;;;;;;;;;;;;;;;1.26;54.08;100124.81;106391;1277;22648;-85
2022/01/24 14:07:42;;;;;;;;;;;;;;;1.19;54.39;100125.04;106104;1277;124005;-85
2022/01/24 14:10:11;;;;;;;;;;;;;;;1.06;53.97;100125.01;106344;1278;22543;-85
2022/01/24 14:12:45;;;;;;;;;;;;;;;0.92;54.07;100123.33;106037;1279;25240;-85
2022/01/24 14:20:45;;;;;;;;;;;;;;;0.42;55.30;100117.86;106303;1277;124185;-85
2022/01/24 14:23:35;;;;;;;;;;;;;;;0.24;55.56;100111.90;106364;1277;24298;-85
2022/01/24 14:26:20;;;;;;;;;;;;;;;0.04;55.95;100112.96;106418;1277;124206;-85
2022/01/24 14:28:50;;;;;;;;;;;;;;;-0.10;56.48;100115.33;106097;1277;22543;-85
2022/01/24 14:31:23;;;;;;;;;;;;;;;-0.23;56.64;100115.92;106266;1277;124496;-84
2022/01/24 14:33:58;;;;;;;;;;;;;;;-0.36;57.15;100113.42;106621;1277;24384;-85
2022/01/24 14:36:25;;;;;;;;;;;;;;;-0.48;57.55;100123.02;106119;1277;22526;-85
2022/01/24 14:38:57;;;;;;;;;;;;;;;-0.59;57.71;100119.88;106230;1277;124385;-84
2022/01/24 14:41:25;;;;;;;;;;;;;;;-0.69;57.90;100120.23;106318;1277;24257;-84
2022/01/24 14:46:39;;;;;;;;;;;;;;;-0.90;58.72;100122.00;106289;1277;22540;-84